Latest Weather Observations for Coondewanna

IDW60801

Issued at 3:53 pm WST Tuesday 16 August 2022 (issued every 10 minutes, with the page automatically refreshed every 10 minutes)

About weather observations | Map of weather stations | Latest weather observations for WA | Other Formats
Station Details ID: 505051 Name: COONDEWANNA Lat: -22.96 Lon: 118.81 Height: 697.63 m
Data from the previous 72 hours. | See also: Recent months for locations in Western Australia
Date/Time
WST
Temp
°C
App
Temp
°C
Dew
Point
°C
Rel
Hum
%
Delta-T
°C
Wind Press
QNH
hPa
Press
MSL
hPa
Rain since
9am
mm
Dir  Spd
km/h
Gust
km/h
Spd
kts
Gust
kts
16/03:30pm 30.1 24.2 4.0 19 13.8 NNW 24 33 13 18 1015.8 1013.6 0.0
16/03:00pm 29.7 24.3 4.4 20 13.4 N 22 32 12 17 1015.7 1013.5 0.0
16/02:30pm 30.1 24.2 4.0 19 13.8 NNW 24 35 13 19 1015.8 1013.6 0.0
16/02:20pm 29.7 23.0 3.6 19 13.7 N 28 48 15 26 1015.6 1013.4 0.0
16/02:00pm 29.4 23.8 3.4 19 13.5 N 22 37 12 20 1015.9 1013.7 0.0
16/01:30pm 29.5 23.3 4.2 20 13.4 NNW 26 44 14 24 1016.4 1014.3 0.0
16/01:00pm 29.0 22.7 3.8 20 13.2 N 26 43 14 23 1016.8 1014.6 0.0
16/12:30pm 28.9 22.1 3.0 19 13.4 N 28 44 15 24 1017.0 1014.8 0.0
16/12:00pm 29.1 22.8 3.9 20 13.2 N 26 43 14 23 1017.5 1015.3 0.0
16/11:38am 28.3 21.5 3.2 20 13.0 N 28 46 15 25 1017.7 1015.6 0.0
16/11:30am 28.3 21.5 3.2 20 13.0 N 28 41 15 22 1017.9 1015.8 0.0
16/11:00am 28.0 22.1 3.7 21 12.6 N 24 43 13 23 1018.4 1016.2 0.0
16/10:45am 27.7 21.0 3.4 21 12.5 N 28 46 15 25 1018.5 1016.3 0.0
16/10:30am 27.7 21.1 4.1 22 12.3 NNW 28 39 15 21 1018.6 1016.4 0.0
16/10:00am 27.3 21.7 3.7 22 12.2 N 22 37 12 20 1019.0 1016.9 0.0
16/09:30am 26.1 21.6 4.0 24 11.4 NNW 17 26 9 14 1019.2 1017.1 0.0
16/09:00am 25.0 21.0 3.0 24 11.1 NNW 13 19 7 10 1019.1 1017.0 0.0
16/08:30am 23.5 20.4 3.4 27 10.1 N 9 15 5 8 1019.1 1017.0 0.0
16/08:00am 21.4 19.6 3.6 31 8.8 NNE 2 7 1 4 1018.8 1016.6 0.0
16/07:30am 18.6 16.0 3.3 36 7.4 NNE 6 7 3 4 1018.6 1016.4 0.0
16/07:00am 15.8 13.2 4.2 46 5.6 NNE 7 9 4 5 1018.4 1016.2 0.0
16/06:30am 13.8 11.1 3.6 50 4.8 NNE 7 9 4 5 1018.0 1015.9 0.0
16/06:00am 15.1 12.0 3.6 46 5.5 NNE 9 9 5 5 1017.9 1015.8 0.0
16/05:30am 15.9 12.8 3.7 44 5.8 NNE 9 9 5 5 1017.7 1015.6 0.0
16/05:00am 16.4 13.3 3.5 42 6.2 NNE 9 11 5 6 1017.5 1015.3 0.0
16/04:30am 17.0 13.9 3.7 41 6.4 NNE 9 11 5 6 1017.3 1015.1 0.0
16/04:00am 17.0 13.9 3.7 41 6.4 NNE 9 9 5 5 1017.2 1015.0 0.0
16/03:30am 17.2 14.7 3.8 41 6.5 NNE 6 9 3 5 1017.3 1015.1 0.0
16/03:00am 18.4 15.3 3.5 37 7.2 NNE 9 11 5 6 1017.4 1015.2 0.0
16/02:30am 18.2 16.8 3.7 38 7.1 CALM 0 6 0 3 1017.5 1015.3 0.0
16/02:00am 18.6 16.4 3.6 37 7.3 NNE 4 9 2 5 1017.7 1015.6 0.0
16/01:30am 19.5 16.1 4.0 36 7.7 NNE 11 13 6 7 1017.6 1015.5 0.0
16/01:00am 19.5 16.2 4.4 37 7.5 NNE 11 15 6 8 1017.6 1015.5 0.0
16/12:30am 20.1 17.2 4.6 36 7.8 NNW 9 17 5 9 1017.9 1015.8 0.0
16/12:00am 20.2 17.7 4.7 36 7.8 N 7 11 4 6 1017.7 1015.6 0.0
 
Date/Time
WST
Temp
°C
App
Temp
°C
Dew
Point
°C
Rel
Hum
%
Delta-T
°C
Wind Press
QNH
hPa
Press
MSL
hPa
Rain since
9am
mm
Dir  Spd
km/h
Gust
km/h
Spd
kts
Gust
kts
15/11:30pm 21.1 18.3 5.1 35 8.2 NNW 9 15 5 8 1018.1 1016.0 0.0
15/11:00pm 21.1 18.3 5.1 35 8.2 NNW 9 13 5 7 1018.3 1016.1 0.0
15/10:30pm 21.6 18.4 5.1 34 8.4 NNW 11 15 6 8 1018.4 1016.2 0.0
15/10:00pm 22.3 18.9 5.7 34 8.6 N 13 17 7 9 1018.5 1016.3 0.0
15/09:30pm 22.8 19.4 6.1 34 8.8 N 13 20 7 11 1018.4 1016.2 0.0
15/09:00pm 23.8 20.1 6.1 32 9.3 N 15 20 8 11 1018.3 1016.1 0.0
15/08:30pm 24.3 21.0 6.6 32 9.5 N 13 17 7 9 1018.0 1015.9 0.0
15/08:00pm 24.6 21.4 6.8 32 9.6 N 13 19 7 10 1017.8 1015.7 0.0
15/07:30pm 24.6 21.9 7.3 33 9.4 NNW 11 15 6 8 1017.6 1015.5 0.0
15/07:00pm 25.0 22.3 7.2 32 9.6 N 11 15 6 8 1017.2 1015.0 0.0
15/06:30pm 25.9 23.2 7.5 31 10.1 N 11 15 6 8 1017.0 1014.8 0.0
15/06:00pm 26.8 23.7 7.3 29 10.7 NNW 13 19 7 10 1016.5 1014.4 0.0
15/05:30pm 27.6 23.2 7.5 28 11.1 NNW 20 30 11 16 1016.2 1014.0 0.0
15/05:00pm 28.3 23.5 7.5 27 11.5 NNW 22 30 12 16 1016.0 1013.8 0.0
15/04:30pm 28.8 24.1 7.9 27 11.7 NNW 22 30 12 16 1015.9 1013.7 0.0
15/04:00pm 29.9 25.8 7.8 25 12.4 N 19 33 10 18 1015.8 1013.6 0.0
15/03:30pm 29.6 25.2 7.5 25 12.3 N 20 32 11 17 1015.8 1013.6 0.0
15/03:00pm 28.8 24.4 7.4 26 11.9 N 20 37 11 20 1015.9 1013.7 0.0
15/02:30pm 29.8 25.1 7.7 25 12.4 NNE 22 35 12 19 1015.7 1013.5 0.0
15/02:00pm 29.5 24.9 8.0 26 12.1 N 22 33 12 18 1016.2 1014.0 0.0
15/01:30pm 28.9 24.3 8.0 27 11.7 NNW 22 33 12 18 1016.5 1014.4 0.0
15/01:00pm 29.9 25.3 8.3 26 12.2 N 22 33 12 18 1017.1 1014.9 0.0
15/12:30pm 30.0 25.7 7.8 25 12.5 NNE 20 37 11 20 1017.5 1015.3 0.0
15/12:00pm 29.0 23.9 7.6 26 11.9 NNE 24 43 13 23 1018.0 1015.9 0.0
15/11:30am 29.4 25.1 7.9 26 12.1 N 20 35 11 19 1018.5 1016.3 0.0
15/11:00am 28.7 24.4 7.9 27 11.6 N 20 32 11 17 1019.0 1016.9 0.0
15/10:30am 27.5 22.8 7.9 29 10.9 N 22 35 12 19 1019.4 1017.3 0.0
15/10:00am 27.5 25.0 8.4 30 10.7 N 11 19 6 10 1019.5 1017.4 0.0
15/09:30am 25.7 25.0 8.7 34 9.5 N 2 7 1 4 1019.6 1017.5 0.0
15/09:00am 23.7 22.5 9.7 41 7.9 N 6 9 3 5 1019.5 1017.4 0.0
15/08:30am 20.4 20.3 9.3 49 6.1 CALM 0 0 0 0 1019.9 1017.7 0.0
15/08:00am 19.4 19.3 9.3 52 5.5 CALM 0 6 0 3 1019.9 1017.7 0.0
15/07:30am 17.0 16.3 8.7 58 4.4 N 2 7 1 4 1019.6 1017.5 0.0
15/07:00am 14.9 12.7 7.9 63 3.6 N 9 11 5 6 1019.4 1017.3 0.0
15/06:30am 13.3 11.0 7.3 67 3.0 N 9 11 5 6 1019.2 1017.1 0.0
15/06:00am 12.1 10.6 6.8 70 2.6 N 4 7 2 4 1019.0 1016.9 0.0
15/05:30am 12.1 11.4 7.0 71 2.5 CALM 0 0 0 0 1018.6 1016.4 0.0
15/05:00am 12.5 10.4 6.8 68 2.8 N 7 7 4 4 1018.3 1016.1 0.0
15/04:30am 14.0 12.0 7.1 63 3.5 N 7 11 4 6 1018.3 1016.1 0.0
15/04:00am 15.5 13.3 8.0 61 3.9 N 9 11 5 6 1018.4 1016.2 0.0
15/03:30am 13.9 12.2 7.7 66 3.2 N 6 11 3 6 1018.6 1016.4 0.0
15/03:00am 13.7 13.0 6.8 63 3.5 CALM 0 0 0 0 1018.8 1016.6 0.0
15/02:30am 13.4 12.6 6.7 64 3.4 CALM 0 0 0 0 1018.8 1016.6 0.0
15/02:00am 15.5 14.7 8.0 61 3.9 N 2 9 1 5 1018.7 1016.5 0.0
15/01:30am 15.4 14.8 7.2 58 4.2 CALM 0 0 0 0 1018.8 1016.6 0.0
15/01:00am 16.7 16.1 7.4 54 4.8 CALM 0 0 0 0 1018.9 1016.8 0.0
15/12:30am 16.9 15.1 8.1 56 4.6 N 7 9 4 5 1018.9 1016.8 0.0
15/12:00am 17.3 16.7 7.6 53 5.1 CALM 0 0 0 0 1019.1 1017.0 0.0
 
Date/Time
WST
Temp
°C
App
Temp
°C
Dew
Point
°C
Rel
Hum
%
Delta-T
°C
Wind Press
QNH
hPa
Press
MSL
hPa
Rain since
9am
mm
Dir  Spd
km/h
Gust
km/h
Spd
kts
Gust
kts
14/11:30pm 18.2 17.7 7.9 51 5.4 CALM 0 0 0 0 1019.4 1017.3 0.0
14/11:00pm 19.4 17.3 8.1 48 6.0 N 9 11 5 6 1019.5 1017.4 0.0
14/10:30pm 19.8 19.0 8.2 47 6.2 N 2 9 1 5 1019.5 1017.4 0.0
14/10:00pm 20.6 19.7 7.9 44 6.8 N 2 7 1 4 1019.6 1017.5 0.0
14/09:30pm 21.7 20.1 8.2 42 7.3 N 6 7 3 4 1019.4 1017.3 0.0
14/09:00pm 22.6 21.5 8.3 40 7.8 N 4 7 2 4 1019.4 1017.3 0.0
14/08:30pm 22.5 20.9 8.2 40 7.8 N 6 7 3 4 1019.3 1017.2 0.0
14/08:00pm 23.9 22.1 7.9 36 8.7 N 7 9 4 5 1019.0 1016.9 0.0
14/07:30pm 23.7 22.1 7.8 36 8.7 N 6 7 3 4 1018.7 1016.5 0.0
14/07:00pm 24.6 22.7 7.7 34 9.2 N 7 9 4 5 1018.1 1016.0 0.0
14/06:30pm 25.5 23.6 7.6 32 9.8 N 7 9 4 5 1017.7 1015.6 0.0
14/06:00pm 26.3 24.0 7.4 30 10.4 N 9 13 5 7 1017.5 1015.3 0.0
14/05:30pm 27.0 24.0 7.5 29 10.8 NNW 13 19 7 10 1017.2 1015.0 0.0
14/05:00pm 27.7 23.9 7.5 28 11.2 NW 17 26 9 14 1017.0 1014.8 0.0
14/04:30pm 28.5 26.6 7.7 27 11.6 NW 7 15 4 8 1016.8 1014.6 0.0
14/04:00pm 27.6 25.1 8.0 29 10.9 N 11 15 6 8 1016.8 1014.6 0.0
14/03:30pm 28.1 25.1 7.9 28 11.3 NNW 13 20 7 11 1016.7 1014.5 0.0
14/03:00pm 28.1 25.1 7.9 28 11.3 NW 13 22 7 12 1016.7 1014.5 0.0
14/02:30pm 27.9 24.4 7.2 27 11.4 NW 15 24 8 13 1016.8 1014.6 0.0
14/02:00pm 28.3 26.5 8.1 28 11.3 N 7 26 4 14 1017.1 1014.9 0.0
14/01:30pm 28.1 24.5 8.4 29 11.1 N 17 26 9 14 1017.5 1015.3 0.0
14/01:00pm 27.7 23.8 8.6 30 10.7 NNW 19 28 10 15 1017.9 1015.8 0.0
14/12:30pm 26.4 23.6 8.4 32 10.0 NNW 13 20 7 11 1018.3 1016.1 0.0
14/12:00pm 26.8 24.0 8.7 32 10.2 NNE 13 22 7 12 1018.6 1016.4 0.0
14/11:30am 26.5 23.3 8.5 32 10.1 N 15 24 8 13 1019.0 1016.9 0.0
14/11:00am 25.7 24.1 8.7 34 9.5 W 7 15 4 8 1019.2 1017.1 0.0
14/10:30am 24.6 22.6 8.5 36 8.9 NNE 9 15 5 8 1019.4 1017.3 0.0
14/10:00am 24.0 22.4 8.0 36 8.7 NNE 6 13 3 7 1019.8 1017.6 0.0
14/09:30am 22.5 22.2 8.6 41 7.6 CALM 0 0 0 0 1019.9 1017.7 0.0
14/09:00am 21.6 21.3 8.8 44 7.0 CALM 0 0 0 0 1019.9 1017.7 0.0
14/08:30am 19.5 19.2 8.8 50 5.8 CALM 0 0 0 0 1019.6 1017.5 0.0
14/08:00am 17.8 17.3 7.8 52 5.3 CALM 0 0 0 0 1019.4 1017.3 0.0
14/07:30am 14.6 14.0 7.2 61 3.8 CALM 0 0 0 0 1019.2 1017.1 0.0
14/07:00am 11.4 10.3 5.3 66 2.9 CALM 0 0 0 0 1018.9 1016.8 0.0
14/06:30am 11.8 9.7 5.7 66 3.0 N 6 7 3 4 1018.5 1016.3 0.0
14/06:00am 11.9 9.6 5.8 66 3.0 N 7 9 4 5 1018.1 1016.0 0.0
14/05:30am 11.4 9.5 5.1 65 3.0 N 4 6 2 3 1018.0 1015.9 0.0
14/05:00am 11.9 10.5 5.5 65 3.1 N 2 6 1 3 1017.8 1015.7 0.0
14/04:30am 12.3 10.1 6.4 67 2.9 N 7 7 4 4 1017.5 1015.3 0.0
14/04:00am 12.3 11.3 5.7 64 3.2 CALM 0 0 0 0 1017.6 1015.5 0.0
14/03:30am 12.8 11.9 5.9 63 3.4 CALM 0 0 0 0 1017.6 1015.5 0.0
14/03:00am 13.2 12.2 5.6 60 3.7 CALM 0 0 0 0 1017.7 1015.6 0.0
14/02:30am 15.1 14.2 6.1 55 4.5 CALM 0 0 0 0 1017.8 1015.7 0.0
14/02:00am 15.5 13.8 6.0 53 4.7 N 4 9 2 5 1017.8 1015.7 0.0
14/01:30am 16.4 14.8 6.2 51 5.2 N 4 7 2 4 1017.9 1015.8 0.0
14/01:00am 17.0 15.8 6.5 50 5.4 N 2 7 1 4 1017.9 1015.8 0.0
14/12:30am 17.2 14.7 6.7 50 5.4 N 9 9 5 5 1017.9 1015.8 0.0
14/12:00am 16.9 14.8 6.7 51 5.2 N 7 9 4 5 1018.3 1016.1 0.0
 
Date/Time
WST
Temp
°C
App
Temp
°C
Dew
Point
°C
Rel
Hum
%
Delta-T
°C
Wind Press
QNH
hPa
Press
MSL
hPa
Rain since
9am
mm
Dir  Spd
km/h
Gust
km/h
Spd
kts
Gust
kts
13/11:30pm 16.4 14.2 6.2 51 5.2 N 7 9 4 5 1018.3 1016.1 0.0
13/11:00pm 16.4 14.3 6.0 50 5.2 N 6 7 3 4 1018.4 1016.2 0.0
13/10:30pm 16.7 14.1 5.9 49 5.4 N 9 9 5 5 1018.3 1016.1 0.0
13/10:00pm 16.6 15.3 5.9 49 5.4 N 2 7 1 4 1018.0 1015.9 0.0
13/09:30pm 16.8 15.8 5.7 48 5.6 CALM 0 0 0 0 1017.9 1015.8 0.0
13/09:00pm 17.3 16.3 5.6 46 5.9 CALM 0 0 0 0 1017.7 1015.6 0.0
13/08:30pm 18.8 17.2 6.3 44 6.4 N 4 7 2 4 1017.5 1015.3 0.0
13/08:00pm 19.4 17.1 5.8 41 6.9 N 7 9 4 5 1017.2 1015.0 0.0
13/07:30pm 19.3 16.9 5.4 40 7.1 NNW 7 7 4 4 1017.2 1015.0 0.0
13/07:00pm 21.1 18.8 5.5 36 8.0 NNW 7 9 4 5 1016.9 1014.7 0.0
13/06:30pm 22.4 20.0 5.4 33 8.8 NNW 7 9 4 5 1016.7 1014.5 0.0
13/06:00pm 23.9 20.7 5.3 30 9.7 NNW 11 13 6 7 1016.4 1014.3 0.0
13/05:30pm 25.3 21.4 5.5 28 10.4 NNW 15 20 8 11 1016.2 1014.0 0.0
13/05:00pm 26.0 21.6 5.0 26 11.0 NNW 17 24 9 13 1016.2 1014.0 0.0
13/04:30pm 26.8 22.5 5.1 25 11.5 NW 17 26 9 14 1016.0 1013.8 0.0
13/04:00pm 27.3 22.5 5.6 25 11.6 NNW 20 37 11 20 1015.9 1013.7 0.0

Other formats

Comma delimited format used in spreadsheet applications
http://www.bom.gov.au/fwo/IDW60801/IDW60801.99312.axf

JavaScript Object Notation format (JSON) in row-major order
http://www.bom.gov.au/fwo/IDW60801/IDW60801.99312.json

Data quality

Most of these data are generated automatically and are frequently updated. Quality checks on data are not normally performed. It is possible for incorrect values to appear. Refer to information at About Latest Weather Observations and please check the disclaimer before using these data.